createdAt,value
2017-03-21T00:00:21.450Z,991.18
2017-03-21T00:01:21.494Z,991.17
2017-03-21T00:02:21.523Z,991.21
2017-03-21T00:03:21.566Z,991.17
2017-03-21T00:04:21.604Z,991.17
2017-03-21T00:05:21.631Z,991.24
2017-03-21T00:06:21.675Z,991.24
2017-03-21T00:07:21.710Z,991.28
2017-03-21T00:08:21.748Z,991.33
2017-03-21T00:09:21.792Z,991.28
2017-03-21T00:10:21.819Z,991.19
2017-03-21T00:11:21.847Z,991.24
2017-03-21T00:12:21.892Z,991.26
2017-03-21T00:13:21.921Z,991.32
2017-03-21T00:14:21.966Z,991.26
2017-03-21T00:15:21.992Z,991.34
2017-03-21T00:16:22.028Z,991.32
2017-03-21T00:17:22.073Z,991.31
2017-03-21T00:18:22.109Z,991.32
2017-03-21T00:19:22.146Z,991.31
2017-03-21T00:20:22.183Z,991.3
2017-03-21T00:21:22.209Z,991.32
2017-03-21T00:22:22.260Z,991.27
2017-03-21T00:23:22.290Z,991.33
2017-03-21T00:24:22.328Z,991.26
2017-03-21T00:25:22.354Z,991.34
2017-03-21T00:26:22.390Z,991.31
2017-03-21T00:27:22.426Z,991.33
2017-03-21T00:28:22.471Z,991.37
2017-03-21T00:29:22.499Z,991.35
2017-03-21T00:30:22.544Z,991.35
2017-03-21T00:31:22.579Z,991.32
2017-03-21T00:32:22.607Z,991.35
2017-03-21T00:33:22.645Z,991.29
2017-03-21T00:34:22.688Z,991.32
2017-03-21T00:35:22.716Z,991.33
2017-03-21T00:36:22.751Z,991.39
2017-03-21T00:37:22.797Z,991.4
2017-03-21T00:38:22.825Z,991.35
2017-03-21T00:39:22.860Z,991.39
2017-03-21T00:40:22.905Z,991.39
2017-03-21T00:41:22.933Z,991.5
2017-03-21T00:42:22.977Z,991.47
2017-03-21T00:43:23.014Z,991.56
2017-03-21T00:44:23.042Z,991.53
2017-03-21T00:45:23.086Z,991.54
2017-03-21T00:46:23.114Z,991.53
2017-03-21T00:47:23.149Z,991.48
2017-03-21T00:48:23.195Z,991.53
2017-03-21T00:49:23.231Z,991.5
2017-03-21T00:50:23.266Z,991.56
2017-03-21T00:51:23.293Z,991.52
2017-03-21T00:52:23.339Z,991.53
2017-03-21T00:53:23.368Z,991.5
2017-03-21T00:54:23.402Z,991.55
2017-03-21T00:55:23.440Z,991.53
2017-03-21T00:56:23.484Z,991.53
2017-03-21T00:57:23.523Z,991.57
2017-03-21T00:58:23.556Z,991.54
2017-03-21T00:59:23.593Z,991.63
2017-03-21T01:00:23.621Z,991.6
2017-03-21T01:01:23.664Z,991.53
2017-03-21T01:02:23.692Z,991.6
2017-03-21T01:03:23.739Z,991.52
2017-03-21T01:04:23.766Z,991.55
2017-03-21T01:05:23.801Z,991.62
2017-03-21T01:06:23.845Z,991.59
2017-03-21T01:07:23.882Z,991.6
2017-03-21T01:08:23.919Z,991.61
2017-03-21T01:09:23.955Z,991.66
2017-03-21T01:10:23.983Z,991.62
2017-03-21T01:11:24.020Z,991.67
2017-03-21T01:12:24.064Z,991.66
2017-03-21T01:13:24.100Z,991.59
2017-03-21T01:14:24.137Z,991.64
2017-03-21T01:15:24.173Z,991.61
2017-03-21T01:16:24.202Z,991.62
2017-03-21T01:17:24.247Z,991.62
2017-03-21T01:18:24.285Z,991.61
2017-03-21T01:19:24.310Z,991.54
2017-03-21T01:20:24.354Z,991.61
2017-03-21T01:21:24.391Z,991.59
2017-03-21T01:22:24.427Z,991.58
2017-03-21T01:23:24.464Z,991.61
2017-03-21T01:24:24.501Z,991.66
2017-03-21T01:25:24.528Z,991.61
2017-03-21T01:26:24.565Z,991.62
2017-03-21T01:27:24.609Z,991.58
2017-03-21T01:28:24.646Z,991.57
2017-03-21T01:29:24.683Z,991.63
2017-03-21T01:30:24.717Z,991.56
2017-03-21T01:31:24.754Z,991.57
2017-03-21T01:32:24.783Z,991.54
2017-03-21T01:33:24.819Z,991.55
2017-03-21T01:34:24.854Z,991.54
2017-03-21T01:35:24.900Z,991.54
2017-03-21T01:36:24.935Z,991.58
2017-03-21T01:37:24.973Z,991.54
2017-03-21T01:38:25.000Z,991.56
2017-03-21T01:39:25.046Z,991.5
2017-03-21T01:40:25.082Z,991.53
2017-03-21T01:41:25.119Z,991.48
2017-03-21T01:42:25.154Z,991.54
2017-03-21T01:43:25.182Z,991.55
2017-03-21T01:44:25.229Z,991.57
2017-03-21T01:45:25.255Z,991.57
2017-03-21T01:46:25.301Z,991.6
2017-03-21T01:47:25.328Z,991.63
2017-03-21T01:48:25.366Z,991.59
2017-03-21T01:49:25.410Z,991.47
2017-03-21T01:50:25.444Z,991.56
2017-03-21T01:51:25.482Z,991.63
2017-03-21T01:52:25.517Z,991.58
2017-03-21T01:53:25.547Z,991.53
2017-03-21T01:54:25.591Z,991.56
2017-03-21T01:55:25.618Z,991.58
2017-03-21T01:56:25.663Z,991.59
2017-03-21T01:57:25.700Z,991.68
2017-03-21T01:58:25.728Z,991.66
2017-03-21T01:59:25.766Z,991.62
2017-03-21T02:00:25.800Z,991.65
2017-03-21T02:01:25.836Z,991.66
2017-03-21T02:02:25.883Z,991.62
2017-03-21T02:03:25.909Z,991.62
2017-03-21T02:04:25.954Z,991.6
2017-03-21T02:05:25.982Z,991.64
2017-03-21T02:06:26.026Z,991.63
2017-03-21T02:07:26.055Z,991.69
2017-03-21T02:08:26.091Z,991.72
2017-03-21T02:09:26.140Z,991.76
2017-03-21T02:10:26.165Z,991.76
2017-03-21T02:11:26.208Z,991.77
2017-03-21T02:12:26.237Z,991.7
2017-03-21T02:13:26.279Z,991.71
2017-03-21T02:14:26.308Z,991.67
2017-03-21T02:15:26.345Z,991.64
2017-03-21T02:16:26.381Z,991.56
2017-03-21T02:17:26.427Z,991.67
2017-03-21T02:18:26.463Z,991.56
2017-03-21T02:19:26.501Z,991.55
2017-03-21T02:20:26.567Z,991.61
2017-03-21T02:21:26.576Z,991.63
2017-03-21T02:22:26.600Z,991.67
2017-03-21T02:23:26.645Z,991.7
2017-03-21T02:24:26.682Z,991.7
2017-03-21T02:25:26.706Z,991.68
2017-03-21T02:26:26.751Z,991.64
2017-03-21T02:27:26.781Z,991.68
2017-03-21T02:28:26.826Z,991.69
2017-03-21T02:29:26.861Z,991.69
2017-03-21T02:30:26.898Z,991.65
2017-03-21T02:31:26.926Z,991.66
2017-03-21T02:32:26.970Z,991.65
2017-03-21T02:33:27.007Z,991.62
2017-03-21T02:34:27.041Z,991.63
2017-03-21T02:35:27.079Z,991.73
2017-03-21T02:36:27.105Z,991.69
2017-03-21T02:37:27.140Z,991.73
2017-03-21T02:38:27.186Z,991.72
2017-03-21T02:39:27.213Z,991.77
2017-03-21T02:40:27.258Z,991.64
2017-03-21T02:41:27.294Z,991.64
2017-03-21T02:42:27.322Z,991.6
2017-03-21T02:43:27.367Z,991.64
2017-03-21T02:44:27.402Z,991.64
2017-03-21T02:45:27.440Z,991.63
2017-03-21T02:46:27.466Z,991.65
2017-03-21T02:47:27.510Z,991.64
2017-03-21T02:48:27.546Z,991.64
2017-03-21T02:49:27.586Z,991.64
2017-03-21T02:50:27.618Z,991.63
2017-03-21T02:51:27.645Z,991.63
2017-03-21T02:52:27.690Z,991.67
2017-03-21T02:53:27.719Z,991.68
2017-03-21T02:54:27.754Z,991.68
2017-03-21T02:55:27.788Z,991.7
2017-03-21T02:56:27.833Z,991.71
2017-03-21T02:57:27.868Z,991.77
2017-03-21T02:58:27.897Z,991.71
2017-03-21T02:59:27.940Z,991.7
2017-03-21T03:00:27.978Z,991.63
2017-03-21T03:01:28.014Z,991.74
2017-03-21T03:02:28.040Z,991.77
2017-03-21T03:03:28.085Z,991.78
2017-03-21T03:04:28.113Z,991.79
2017-03-21T03:05:28.147Z,991.76
2017-03-21T03:06:28.183Z,991.77
2017-03-21T03:07:28.220Z,991.84
2017-03-21T03:08:28.261Z,991.81
2017-03-21T03:09:28.290Z,991.86
2017-03-21T03:10:28.334Z,991.84
2017-03-21T03:11:28.363Z,991.84
2017-03-21T03:12:28.399Z,991.79
2017-03-21T03:13:28.434Z,991.76
2017-03-21T03:14:28.494Z,991.81
2017-03-21T03:15:28.514Z,991.8
2017-03-21T03:16:28.541Z,991.83
2017-03-21T03:17:28.585Z,991.82
2017-03-21T03:18:28.621Z,991.86
2017-03-21T03:19:28.650Z,991.84
2017-03-21T03:20:28.686Z,991.86
2017-03-21T03:21:28.721Z,991.87
2017-03-21T03:22:28.766Z,991.89
2017-03-21T03:23:28.798Z,991.92
2017-03-21T03:24:28.836Z,991.92
2017-03-21T03:25:28.864Z,991.92
2017-03-21T03:26:28.899Z,991.85
2017-03-21T03:27:28.944Z,991.9
2017-03-21T03:28:28.971Z,991.9
2017-03-21T03:29:29.015Z,991.91
2017-03-21T03:30:29.051Z,991.96
2017-03-21T03:31:29.087Z,991.95
2017-03-21T03:32:29.123Z,991.92
2017-03-21T03:33:29.159Z,991.93
2017-03-21T03:34:29.195Z,991.94
2017-03-21T03:35:29.229Z,991.85
2017-03-21T03:36:29.258Z,991.93
2017-03-21T03:37:29.303Z,991.93
2017-03-21T03:38:29.339Z,991.94
2017-03-21T03:39:29.365Z,991.9
2017-03-21T03:40:29.409Z,991.87
2017-03-21T03:41:29.437Z,991.88
2017-03-21T03:42:29.481Z,991.86
2017-03-21T03:43:29.509Z,991.86
2017-03-21T03:44:29.553Z,991.92
2017-03-21T03:45:29.583Z,991.88
2017-03-21T03:46:29.616Z,991.84
2017-03-21T03:47:29.661Z,991.89
2017-03-21T03:48:29.698Z,991.85
2017-03-21T03:49:29.732Z,991.87
2017-03-21T03:50:29.768Z,991.9
2017-03-21T03:51:29.796Z,991.82
2017-03-21T03:52:29.843Z,991.86
2017-03-21T03:53:29.877Z,991.85
2017-03-21T03:54:29.914Z,991.88
2017-03-21T03:55:29.948Z,991.89
2017-03-21T03:56:29.986Z,991.85
2017-03-21T03:57:30.019Z,991.92
2017-03-21T03:58:30.056Z,991.9
2017-03-21T03:59:30.083Z,991.95
2017-03-21T04:00:30.129Z,991.94
2017-03-21T04:01:30.154Z,991.91
2017-03-21T04:02:30.191Z,991.89
2017-03-21T04:03:30.236Z,991.92
2017-03-21T04:04:30.269Z,991.92
2017-03-21T04:05:30.297Z,991.96
2017-03-21T04:06:30.377Z,991.87
2017-03-21T04:07:30.379Z,991.92
2017-03-21T04:08:30.414Z,991.91
2017-03-21T04:09:30.449Z,991.94
2017-03-21T04:10:30.478Z,991.94
2017-03-21T04:11:30.521Z,991.91
2017-03-21T04:12:30.558Z,991.9
2017-03-21T04:13:30.586Z,991.89
2017-03-21T04:14:30.631Z,991.91
2017-03-21T04:15:30.657Z,991.9
2017-03-21T04:16:30.700Z,991.92
2017-03-21T04:17:30.736Z,991.96
2017-03-21T04:18:30.774Z,991.92
2017-03-21T04:19:30.809Z,991.94
2017-03-21T04:20:30.845Z,991.91
2017-03-21T04:21:30.881Z,991.96
2017-03-21T04:22:30.908Z,992.03
2017-03-21T04:23:30.952Z,991.94
2017-03-21T04:24:30.980Z,991.92
2017-03-21T04:25:31.024Z,991.96
2017-03-21T04:26:31.051Z,992
2017-03-21T04:27:31.096Z,992
2017-03-21T04:28:31.123Z,992.02
2017-03-21T04:29:31.167Z,992.01
2017-03-21T04:30:31.194Z,992.02
2017-03-21T04:31:31.230Z,992.03
2017-03-21T04:32:31.266Z,991.88
2017-03-21T04:33:31.301Z,992.03
2017-03-21T04:34:31.337Z,992.07
2017-03-21T04:35:31.381Z,991.99
2017-03-21T04:36:31.408Z,992.04
2017-03-21T04:37:31.445Z,992.08
2017-03-21T04:38:31.489Z,992.06
2017-03-21T04:39:31.515Z,991.97
2017-03-21T04:40:31.550Z,992.04
2017-03-21T04:41:31.587Z,992
2017-03-21T04:42:31.632Z,992.01
2017-03-21T04:43:31.660Z,992.08
2017-03-21T04:44:31.703Z,992.1
2017-03-21T04:45:31.730Z,992.15
2017-03-21T04:46:31.774Z,992.12
2017-03-21T04:47:31.810Z,992.14
2017-03-21T04:48:31.837Z,992.12
2017-03-21T04:49:31.873Z,992.13
2017-03-21T04:50:31.918Z,992.14
2017-03-21T04:51:31.954Z,992.11
2017-03-21T04:52:31.988Z,992.17
2017-03-21T04:53:32.017Z,992.13
2017-03-21T04:54:32.060Z,992.21
2017-03-21T04:55:32.086Z,992.24
2017-03-21T04:56:32.132Z,992.2
2017-03-21T04:57:32.160Z,992.26
2017-03-21T04:58:32.196Z,992.23
2017-03-21T04:59:32.233Z,992.29
2017-03-21T05:00:32.275Z,992.29
2017-03-21T05:01:32.302Z,992.27
2017-03-21T05:02:32.345Z,992.33
2017-03-21T05:03:32.375Z,992.33
2017-03-21T05:04:32.409Z,992.33
2017-03-21T05:05:32.453Z,992.4
2017-03-21T05:06:32.480Z,992.38
2017-03-21T05:07:32.525Z,992.39
2017-03-21T05:08:32.563Z,992.46
2017-03-21T05:09:32.598Z,992.48
2017-03-21T05:10:32.623Z,992.44
2017-03-21T05:11:32.669Z,992.46
2017-03-21T05:12:32.706Z,992.46
2017-03-21T05:13:32.739Z,992.43
2017-03-21T05:14:32.767Z,992.38
2017-03-21T05:15:32.812Z,992.43
2017-03-21T05:16:32.839Z,992.43
2017-03-21T05:17:32.883Z,992.44
2017-03-21T05:18:32.914Z,992.46
2017-03-21T05:19:32.956Z,992.48
2017-03-21T05:20:32.991Z,992.5
2017-03-21T05:21:33.019Z,992.5
2017-03-21T05:22:33.053Z,992.49
2017-03-21T05:23:33.091Z,992.48
2017-03-21T05:24:33.134Z,992.49
2017-03-21T05:25:33.207Z,992.51
2017-03-21T05:26:33.199Z,992.58
2017-03-21T05:27:33.236Z,992.55
2017-03-21T05:28:33.277Z,992.6
2017-03-21T05:29:33.304Z,992.56
2017-03-21T05:30:33.343Z,992.6
2017-03-21T05:31:33.378Z,992.56
2017-03-21T05:32:33.413Z,992.57
2017-03-21T05:33:33.457Z,992.6
2017-03-21T05:34:33.499Z,992.59
2017-03-21T05:35:33.527Z,992.58
2017-03-21T05:36:33.568Z,992.56
2017-03-21T05:37:33.593Z,992.57
2017-03-21T05:38:33.629Z,992.55
2017-03-21T05:39:33.671Z,992.54
2017-03-21T05:40:33.699Z,992.56
2017-03-21T05:41:33.736Z,992.56
2017-03-21T05:42:33.781Z,992.54
2017-03-21T05:43:33.807Z,992.58
2017-03-21T05:44:33.857Z,992.48
2017-03-21T05:45:33.888Z,992.55
2017-03-21T05:46:33.914Z,992.58
2017-03-21T05:47:33.951Z,992.59
2017-03-21T05:48:33.996Z,992.56
2017-03-21T05:49:34.023Z,992.54
2017-03-21T05:50:34.058Z,992.48
2017-03-21T05:51:34.094Z,992.49
2017-03-21T05:52:34.131Z,992.5
2017-03-21T05:53:34.167Z,992.49
2017-03-21T05:54:34.203Z,992.5
2017-03-21T05:55:34.249Z,992.52
2017-03-21T05:56:34.277Z,992.47
2017-03-21T05:57:34.312Z,992.46
2017-03-21T05:58:34.348Z,992.44
2017-03-21T05:59:34.384Z,992.47
2017-03-21T06:00:34.429Z,992.47
2017-03-21T06:01:34.456Z,992.47
2017-03-21T06:02:34.502Z,992.48
2017-03-21T06:03:34.538Z,992.53
2017-03-21T06:04:34.565Z,992.51
2017-03-21T06:05:34.609Z,992.53
2017-03-21T06:06:34.645Z,992.47
2017-03-21T06:07:34.675Z,992.54
2017-03-21T06:08:34.710Z,992.59
2017-03-21T06:09:34.747Z,992.62
2017-03-21T06:10:34.792Z,992.62
2017-03-21T06:11:34.821Z,992.69
2017-03-21T06:12:34.865Z,992.66
2017-03-21T06:13:34.901Z,992.67
2017-03-21T06:14:34.930Z,992.62
2017-03-21T06:15:34.974Z,992.61
2017-03-21T06:16:35.003Z,992.62
2017-03-21T06:17:35.048Z,992.6
2017-03-21T06:18:35.084Z,992.61
2017-03-21T06:19:35.112Z,992.57
2017-03-21T06:20:35.157Z,992.67
2017-03-21T06:21:35.194Z,992.68
2017-03-21T06:22:35.231Z,992.65
2017-03-21T06:23:35.268Z,992.69
2017-03-21T06:24:35.305Z,992.65
2017-03-21T06:25:35.747Z,992.67
2017-03-21T06:26:35.369Z,992.7
2017-03-21T06:27:35.406Z,992.69
2017-03-21T06:28:35.443Z,992.67
2017-03-21T06:29:35.488Z,992.72
2017-03-21T06:30:35.516Z,992.75
2017-03-21T06:31:35.553Z,992.79
2017-03-21T06:32:35.590Z,992.75
2017-03-21T06:33:35.627Z,992.74
2017-03-21T06:34:35.662Z,992.75
2017-03-21T06:35:35.699Z,992.81
2017-03-21T06:36:35.756Z,992.82
2017-03-21T06:37:35.781Z,992.86
2017-03-21T06:38:35.819Z,992.82
2017-03-21T06:39:35.849Z,992.83
2017-03-21T06:40:35.883Z,992.79
2017-03-21T06:41:35.930Z,992.83
2017-03-21T06:42:35.965Z,992.84
2017-03-21T06:43:35.994Z,992.81
2017-03-21T06:44:36.030Z,992.82
2017-03-21T06:45:36.074Z,992.81
2017-03-21T06:46:36.110Z,992.79
2017-03-21T06:47:36.140Z,992.83
2017-03-21T06:48:36.176Z,992.75
2017-03-21T06:49:36.221Z,992.82
2017-03-21T06:50:36.249Z,992.8
2017-03-21T06:51:36.305Z,992.81
2017-03-21T06:52:36.323Z,992.76
2017-03-21T06:53:36.361Z,992.72
2017-03-21T06:54:36.398Z,992.76
2017-03-21T06:55:36.442Z,992.78
2017-03-21T06:56:36.469Z,992.77
2017-03-21T06:57:36.516Z,992.75
2017-03-21T06:58:36.545Z,992.76
2017-03-21T06:59:36.579Z,992.8
2017-03-21T07:00:36.624Z,992.82
2017-03-21T07:01:36.654Z,992.88
2017-03-21T07:02:36.699Z,992.9
2017-03-21T07:03:36.725Z,992.88
2017-03-21T07:04:36.772Z,992.89
2017-03-21T07:05:36.811Z,992.9
2017-03-21T07:06:36.846Z,992.94
2017-03-21T07:07:36.897Z,992.88
2017-03-21T07:08:36.920Z,992.93
2017-03-21T07:09:36.965Z,992.93
2017-03-21T07:10:36.984Z,992.95
2017-03-21T07:11:37.030Z,992.79
2017-03-21T07:12:37.067Z,992.94
2017-03-21T07:13:37.096Z,992.95
2017-03-21T07:14:37.145Z,992.94
2017-03-21T07:15:37.168Z,992.94
2017-03-21T07:16:37.215Z,992.91
2017-03-21T07:17:37.245Z,992.94
2017-03-21T07:18:37.281Z,992.95
2017-03-21T07:19:37.318Z,992.98
2017-03-21T07:20:37.363Z,992.99
2017-03-21T07:21:37.399Z,992.95
2017-03-21T07:22:37.436Z,992.99
2017-03-21T07:23:37.466Z,992.93
2017-03-21T07:24:37.503Z,992.97
2017-03-21T07:25:37.546Z,993.01
2017-03-21T07:26:37.586Z,993
2017-03-21T07:27:37.614Z,992.96
2017-03-21T07:28:37.650Z,993.04
2017-03-21T07:29:37.696Z,993.04
2017-03-21T07:30:37.735Z,993.04
2017-03-21T07:31:37.776Z,993.05
2017-03-21T07:32:37.800Z,993.05
2017-03-21T07:33:37.836Z,993.01
2017-03-21T07:34:37.883Z,993.01
2017-03-21T07:35:37.920Z,993.08
2017-03-21T07:36:37.956Z,993.08
2017-03-21T07:37:37.985Z,993.17
2017-03-21T07:38:38.031Z,993.08
2017-03-21T07:39:38.068Z,993.11
2017-03-21T07:40:38.106Z,993.07
2017-03-21T07:41:38.143Z,993.17
2017-03-21T07:42:38.173Z,993.22
2017-03-21T07:43:38.218Z,993.23
2017-03-21T07:44:38.248Z,993.16
2017-03-21T07:45:38.284Z,993.18
2017-03-21T07:46:38.330Z,993.16
2017-03-21T07:47:38.366Z,993.19
2017-03-21T07:48:38.404Z,993.27
2017-03-21T07:49:38.433Z,993.17
2017-03-21T07:50:38.470Z,993.22
2017-03-21T07:51:38.515Z,993.24
2017-03-21T07:52:38.546Z,993.23
2017-03-21T07:53:38.592Z,993.23
2017-03-21T07:54:38.628Z,993.25
2017-03-21T07:55:38.666Z,993.24
2017-03-21T07:56:38.703Z,993.27
2017-03-21T07:57:38.740Z,993.25
2017-03-21T07:58:38.782Z,993.26
2017-03-21T08:00:38.853Z,993.29
2017-03-21T08:01:38.890Z,993.36
2017-03-21T08:02:38.921Z,993.3
2017-03-21T08:03:38.966Z,993.35
2017-03-21T08:04:38.998Z,993.44
2017-03-21T08:05:39.042Z,993.4
2017-03-21T08:06:39.072Z,993.48
2017-03-21T08:07:39.111Z,993.53
2017-03-21T08:08:39.151Z,993.48
2017-03-21T08:09:39.194Z,993.51
2017-03-21T08:10:39.225Z,993.5
2017-03-21T08:11:39.263Z,993.48
2017-03-21T08:12:39.309Z,993.57
2017-03-21T08:13:39.347Z,993.56
2017-03-21T08:14:39.379Z,993.57
2017-03-21T08:15:39.417Z,993.59
2017-03-21T08:16:39.466Z,993.55
2017-03-21T08:17:39.535Z,993.54
2017-03-21T08:18:39.535Z,993.64
2017-03-21T08:19:39.579Z,993.53
2017-03-21T08:20:39.608Z,993.46
2017-03-21T08:21:39.655Z,993.58
2017-03-21T08:22:39.689Z,993.61
2017-03-21T08:23:39.723Z,993.73
2017-03-21T08:24:39.763Z,993.62
2017-03-21T08:25:39.801Z,993.69
2017-03-21T08:26:39.839Z,993.67
2017-03-21T08:27:40.259Z,993.71
2017-03-21T08:28:39.924Z,993.74
2017-03-21T08:29:39.962Z,993.74
2017-03-21T08:30:40.002Z,993.74
2017-03-21T08:31:40.038Z,993.76
2017-03-21T08:33:40.196Z,993.69
2017-03-21T08:34:44.513Z,993.71
2017-03-21T08:35:43.564Z,993.67
2017-03-21T08:36:43.604Z,993.76
2017-03-21T08:37:43.641Z,993.75
2017-03-21T08:38:43.678Z,993.76
2017-03-21T08:39:43.718Z,993.79
2017-03-21T08:40:43.759Z,993.71
2017-03-21T08:41:43.804Z,993.72
2017-03-21T08:42:43.833Z,993.82
2017-03-21T08:43:43.864Z,993.71
2017-03-21T08:44:43.903Z,993.66
2017-03-21T08:45:43.948Z,993.68
2017-03-21T08:46:44.883Z,993.66
2017-03-21T08:47:44.021Z,993.71
2017-03-21T08:48:44.304Z,993.66
2017-03-21T08:49:44.098Z,993.75
2017-03-21T08:50:44.137Z,993.54
2017-03-21T08:51:44.208Z,993.63
2017-03-21T08:52:44.215Z,993.66
2017-03-21T08:53:44.256Z,993.62
2017-03-21T08:54:44.297Z,993.7
2017-03-21T08:55:44.333Z,993.66
2017-03-21T08:56:44.372Z,993.68
2017-03-21T08:57:44.412Z,993.73
2017-03-21T08:58:44.452Z,993.74
2017-03-21T08:59:44.490Z,993.77
2017-03-21T09:00:44.530Z,993.75
2017-03-21T09:01:44.568Z,993.7
2017-03-21T09:02:44.607Z,993.72
2017-03-21T09:03:44.648Z,993.76
2017-03-21T09:04:44.686Z,993.75
2017-03-21T09:05:44.728Z,993.74
2017-03-21T09:06:44.766Z,993.75
2017-03-21T09:07:44.805Z,993.78
2017-03-21T09:08:45.553Z,993.78
2017-03-21T09:09:44.884Z,993.86
2017-03-21T09:10:44.946Z,993.83
2017-03-21T09:11:44.961Z,993.88
2017-03-21T09:12:45.002Z,993.85
2017-03-21T09:13:45.041Z,993.87
2017-03-21T09:14:45.079Z,993.79
2017-03-21T09:15:45.119Z,993.71
2017-03-21T09:16:45.157Z,993.74
2017-03-21T09:17:45.198Z,993.81
2017-03-21T09:18:45.733Z,993.82
2017-03-21T09:19:45.884Z,993.76
2017-03-21T09:20:45.683Z,993.77
2017-03-21T09:21:45.353Z,993.82
2017-03-21T09:22:45.392Z,993.78
2017-03-21T09:23:46.463Z,993.77
2017-03-21T09:24:46.431Z,993.76
2017-03-21T09:25:45.516Z,993.78
2017-03-21T09:26:46.391Z,993.76
2017-03-21T09:27:46.167Z,993.82
2017-03-21T09:28:45.627Z,993.72
2017-03-21T09:29:45.669Z,993.71
2017-03-21T09:30:46.648Z,993.76
2017-03-21T09:31:45.745Z,993.74
2017-03-21T09:32:45.783Z,993.69
2017-03-21T09:33:46.557Z,993.69
2017-03-21T09:34:45.893Z,993.6
2017-03-21T09:35:45.900Z,993.61
2017-03-21T09:36:45.966Z,993.52
2017-03-21T09:37:45.983Z,993.63
2017-03-21T09:38:46.394Z,993.65
2017-03-21T09:39:46.057Z,993.6
2017-03-21T09:40:46.513Z,993.65
2017-03-21T09:41:46.794Z,993.68
2017-03-21T09:42:46.743Z,993.63
2017-03-21T09:43:46.578Z,993.68
2017-03-21T09:44:46.359Z,993.7
2017-03-21T09:45:46.473Z,993.64
2017-03-21T09:46:46.336Z,993.65
2017-03-21T09:47:46.379Z,993.69
2017-03-21T09:48:46.449Z,993.61
2017-03-21T09:49:46.460Z,993.65
2017-03-21T09:50:46.855Z,993.64
2017-03-21T09:51:46.570Z,993.64
2017-03-21T09:52:46.561Z,993.61
2017-03-21T09:53:46.600Z,993.63
2017-03-21T09:54:46.639Z,993.6
2017-03-21T09:55:46.690Z,993.68
2017-03-21T09:56:46.760Z,993.62
2017-03-21T09:57:46.755Z,993.62
2017-03-21T09:58:46.794Z,993.67
2017-03-21T09:59:46.834Z,993.72
2017-03-21T10:00:46.873Z,993.67
2017-03-21T10:01:46.921Z,993.69
2017-03-21T10:02:46.954Z,993.75
2017-03-21T10:03:46.991Z,993.69
2017-03-21T10:04:47.031Z,993.74
2017-03-21T10:05:47.078Z,993.69
2017-03-21T10:06:47.120Z,993.75
2017-03-21T10:07:47.150Z,993.73
2017-03-21T10:08:47.189Z,993.75
2017-03-21T10:09:47.274Z,993.76
2017-03-21T10:10:47.275Z,993.74
2017-03-21T10:11:47.310Z,993.77
2017-03-21T10:12:47.351Z,993.77
2017-03-21T10:13:47.399Z,993.74
2017-03-21T10:14:47.431Z,993.67
2017-03-21T10:15:47.472Z,993.7
2017-03-21T10:16:47.512Z,993.72
2017-03-21T10:17:47.552Z,993.8
2017-03-21T10:18:47.592Z,993.85
2017-03-21T10:19:47.632Z,993.79
2017-03-21T10:20:47.757Z,993.85
2017-03-21T10:21:47.719Z,993.81
2017-03-21T10:22:47.753Z,993.74
2017-03-21T10:23:47.791Z,993.83
2017-03-21T10:24:47.830Z,993.81
2017-03-21T10:25:47.871Z,993.76
2017-03-21T10:26:47.910Z,993.8
2017-03-21T10:27:47.958Z,993.82
2017-03-21T10:28:47.988Z,993.81
2017-03-21T10:29:48.039Z,993.84
2017-03-21T10:30:48.075Z,993.82
2017-03-21T10:31:48.114Z,993.82
2017-03-21T10:32:48.145Z,993.85
2017-03-21T10:33:48.192Z,993.92
2017-03-21T10:34:48.233Z,993.83
2017-03-21T10:35:48.271Z,993.92
2017-03-21T10:36:48.304Z,993.85
2017-03-21T10:37:48.350Z,993.9
2017-03-21T10:38:48.388Z,993.93
2017-03-21T10:39:48.418Z,993.91
2017-03-21T10:40:48.466Z,993.95
2017-03-21T10:41:48.497Z,993.97
2017-03-21T10:42:48.536Z,993.94
2017-03-21T10:43:48.575Z,993.92
2017-03-21T10:44:48.613Z,993.94
2017-03-21T10:45:48.661Z,993.97
2017-03-21T10:46:48.701Z,993.95
2017-03-21T10:47:48.737Z,993.92
2017-03-21T10:48:48.769Z,993.98
2017-03-21T10:49:48.814Z,993.95
2017-03-21T10:50:48.854Z,993.97
2017-03-21T10:51:48.885Z,993.98
2017-03-21T10:52:48.924Z,993.99
2017-03-21T10:53:48.962Z,993.97
2017-03-21T10:54:49.022Z,993.92
2017-03-21T10:55:49.040Z,994
2017-03-21T10:56:49.079Z,993.93
2017-03-21T10:57:49.125Z,993.93
2017-03-21T10:58:49.155Z,993.93
2017-03-21T10:59:49.194Z,993.9
2017-03-21T11:00:49.237Z,993.92
2017-03-21T11:01:49.273Z,993.94
2017-03-21T11:02:49.313Z,993.89
2017-03-21T11:03:49.382Z,993.94
2017-03-21T11:04:49.390Z,993.87
2017-03-21T11:05:49.434Z,993.91
2017-03-21T11:06:49.496Z,993.9
2017-03-21T11:07:49.510Z,993.89
2017-03-21T11:08:49.553Z,993.9
2017-03-21T11:09:49.585Z,993.92
2017-03-21T11:10:49.623Z,993.89
2017-03-21T11:11:49.670Z,993.88
2017-03-21T11:12:49.709Z,993.88
2017-03-21T11:13:49.741Z,993.9
2017-03-21T11:14:49.789Z,993.85
2017-03-21T11:15:49.818Z,993.88
2017-03-21T11:16:49.858Z,993.88
2017-03-21T11:17:49.897Z,993.79
2017-03-21T11:18:49.937Z,993.94
2017-03-21T11:19:49.976Z,993.91
2017-03-21T11:20:50.015Z,993.9
2017-03-21T11:21:50.055Z,993.93
2017-03-21T11:22:50.093Z,993.92
2017-03-21T11:23:51.272Z,993.9
2017-03-21T11:24:51.255Z,993.94
2017-03-21T11:25:50.212Z,993.92
2017-03-21T11:26:50.259Z,993.95
2017-03-21T11:27:50.290Z,993.96
2017-03-21T11:28:50.881Z,993.87
2017-03-21T11:29:50.370Z,993.9
2017-03-21T11:30:51.681Z,993.89
2017-03-21T11:31:51.179Z,993.91
2017-03-21T11:32:50.485Z,993.92
2017-03-21T11:33:51.557Z,993.9
2017-03-21T11:34:51.672Z,993.92
2017-03-21T11:35:50.603Z,993.95
2017-03-21T11:36:51.833Z,993.89
2017-03-21T11:37:50.681Z,993.92
2017-03-21T11:38:50.720Z,993.95
2017-03-21T11:39:51.075Z,993.9
2017-03-21T11:40:51.884Z,993.89
2017-03-21T11:41:50.840Z,993.84
2017-03-21T11:42:50.882Z,993.88
2017-03-21T11:43:51.755Z,993.88
2017-03-21T11:44:50.955Z,993.88
2017-03-21T11:45:51.792Z,993.9
2017-03-21T11:46:51.034Z,993.88
2017-03-21T11:47:51.073Z,993.84
2017-03-21T11:48:52.173Z,993.81
2017-03-21T11:49:51.859Z,993.83
2017-03-21T11:50:51.195Z,993.82
2017-03-21T11:51:52.319Z,993.8
2017-03-21T11:52:51.280Z,993.82
2017-03-21T11:53:52.456Z,993.79
2017-03-21T11:54:51.345Z,993.75
2017-03-21T11:55:51.384Z,993.78
2017-03-21T11:56:52.676Z,993.79
2017-03-21T11:57:52.430Z,993.75
2017-03-21T11:58:52.770Z,993.75
2017-03-21T11:59:52.463Z,993.73
2017-03-21T12:00:51.578Z,993.75
2017-03-21T12:01:51.618Z,993.73
2017-03-21T12:02:52.969Z,993.7
2017-03-21T12:03:51.703Z,993.76
2017-03-21T12:04:52.782Z,993.7
2017-03-21T12:05:53.370Z,993.69
2017-03-21T12:06:51.811Z,993.7
2017-03-21T12:07:51.850Z,993.65
2017-03-21T12:08:51.894Z,993.7
2017-03-21T12:09:51.929Z,993.68
2017-03-21T12:10:53.371Z,993.63
2017-03-21T12:11:52.015Z,993.65
2017-03-21T12:12:52.046Z,993.62
2017-03-21T12:13:52.085Z,993.69
2017-03-21T12:14:52.126Z,993.66
2017-03-21T12:15:53.411Z,993.69
2017-03-21T12:16:52.202Z,993.68
2017-03-21T12:17:52.700Z,993.64
2017-03-21T12:18:53.306Z,993.66
2017-03-21T12:19:52.319Z,993.61
2017-03-21T12:20:53.659Z,993.6
2017-03-21T12:21:54.267Z,993.58
2017-03-21T12:22:52.437Z,993.57
2017-03-21T12:23:53.343Z,993.55
2017-03-21T12:24:53.458Z,993.54
2017-03-21T12:25:52.557Z,993.55
2017-03-21T12:26:52.593Z,993.55
2017-03-21T12:27:53.899Z,993.57
2017-03-21T12:28:52.673Z,993.59
2017-03-21T12:29:52.711Z,993.57
2017-03-21T12:30:52.758Z,993.65
2017-03-21T12:31:52.790Z,993.65
2017-03-21T12:32:52.836Z,993.63
2017-03-21T12:33:52.875Z,993.65